| time (UTC) | temp C | wind direction | speed KPH | gust KPH | rain 1hr cm | rain 24hr cm | rain mn cm | humidity % | barometer mb |
| 20260507113004 | 11 | 243 | 1.6 | 12.9 | 0.00 | 0.18 | 0.10 | 76 | 1015.5 |
| 20260507111510 | 13 | 279 | 0.0 | 1.6 | 0.00 | 0.18 | 0.10 | 76 | 1015.5 |
| 20260507110012 | 12 | 198 | 0.0 | 0.0 | 0.00 | 0.18 | 0.10 | 83 | 1015.4 |
| 20260507104516 | 11 | 74 | 0.0 | 0.0 | 0.10 | 0.18 | 0.10 | 74 | 1015.5 |
| 20260507103022 | 10 | 281 | 0.0 | 0.0 | 0.10 | 0.18 | 0.10 | 84 | 1015.4 |
| 20260507101508 | 10 | 281 | 0.0 | 0.0 | 0.10 | 0.20 | 0.10 | 84 | 1015.4 |
| 20260507100010 | 10 | 281 | 0.0 | 4.8 | 0.08 | 0.20 | 0.08 | 80 | 1015.6 |
| 20260507094512 | 12 | 309 | 0.0 | 0.0 | 0.00 | 0.13 | 0.00 | 76 | 1015.6 |
| 20260507093020 | 13 | 183 | 0.0 | 0.0 | 0.00 | 0.23 | 0.00 | 79 | 1015.4 |
| 20260507091523 | 11 | 286 | 0.0 | 0.0 | 0.00 | 0.28 | 0.00 | 82 | 1015.3 |
| 20260507090005 | 11 | 286 | 0.0 | 0.0 | 0.00 | 0.36 | 0.00 | 84 | 1015.3 |
| 20260507084514 | 11 | 286 | 0.0 | 0.0 | 0.00 | 0.41 | 0.00 | 82 | 1015.3 |
| 20260507083021 | 12 | 187 | 0.0 | 0.0 | 0.00 | 0.48 | 0.00 | 74 | 1015.3 |
| 20260507081530 | 13 | 203 | 0.0 | 0.0 | 0.00 | 0.58 | 0.00 | 73 | 1015.2 |
| 20260507080025 | 11 | 286 | 0.0 | 0.0 | 0.00 | 0.69 | 0.00 | 77 | 1015.1 |
| 20260507074507 | 11 | 286 | 0.0 | 0.0 | 0.00 | 0.76 | 0.00 | 82 | 1015.1 |
| 20260507073014 | 10 | 286 | 0.0 | 0.0 | 0.00 | 0.84 | 0.00 | 85 | 1015.1 |
| 20260507071518 | 9 | 211 | 0.0 | 0.0 | 0.00 | 0.94 | 0.00 | 86 | 1015.2 |
| 20260507070024 | 9 | 173 | 0.0 | 0.0 | 0.00 | 1.09 | 0.00 | 85 | 1015.0 |
| 20260507064524 | 9 | 216 | 0.0 | 0.0 | 0.00 | 1.17 | 0.00 | 84 | 1014.9 |
| 20260507063011 | 10 | 153 | 0.0 | 0.0 | 0.00 | 1.22 | 0.00 | 84 | 1014.8 |
| 20260507061512 | 9 | 168 | 0.0 | 0.0 | 0.00 | 1.24 | 0.00 | 87 | 1014.8 |
| 20260507060018 | 8 | 226 | 0.0 | 0.0 | 0.00 | 1.24 | 0.00 | 88 | 1014.6 |
| 20260507054522 | 7 | 267 | 0.0 | 0.0 | 0.00 | 1.24 | 0.00 | 88 | 1014.6 |
| 20260507053026 | 7 | 235 | 0.0 | 0.0 | 0.00 | 1.24 | 0.00 | 87 | 1014.4 |
| 20260507051504 | 7 | 248 | 0.0 | 0.0 | 0.00 | 1.27 | 0.00 | 87 | 1014.4 |
| 20260507050008 | 7 | 248 | 0.0 | 0.0 | 0.00 | 1.27 | 0.00 | 86 | 1014.2 |
| 20260507044504 | 7 | 241 | 0.0 | 0.0 | 0.00 | 1.27 | 0.00 | 86 | 1014.2 |
| 20260507043005 | 7 | 173 | 0.0 | 0.0 | 0.00 | 1.27 | 0.00 | 86 | 1014.0 |
| 20260507041516 | 7 | 267 | 0.0 | 0.0 | 0.00 | 1.27 | 0.00 | 86 | 1013.9 |
| 20260507040004 | 7 | 297 | 0.0 | 0.0 | 0.00 | 1.27 | 0.00 | 87 | 1013.8 |
| 20260507034512 | 7 | 278 | 0.0 | 0.0 | 0.00 | 1.27 | 0.00 | 86 | 1013.8 |
| 20260507033006 | 7 | 280 | 0.0 | 0.0 | 0.00 | 1.27 | 0.00 | 87 | 1013.8 |
| 20260507031508 | 7 | 291 | 0.0 | 0.0 | 0.00 | 1.27 | 0.00 | 87 | 1013.7 |
| 20260507030007 | 6 | 289 | 0.0 | 0.0 | 0.00 | 1.27 | 0.00 | 87 | 1013.7 |
| 20260507024509 | 6 | 288 | 0.0 | 0.0 | 0.00 | 1.27 | 0.00 | 87 | 1013.8 |
| 20260507023009 | 6 | 282 | 0.0 | 1.6 | 0.00 | 1.27 | 0.00 | 87 | 1013.9 |
| 20260507021504 | 6 | 292 | 0.0 | 0.0 | 0.00 | 1.27 | 0.00 | 87 | 1013.8 |
| 20260507020009 | 6 | 279 | 0.0 | 0.0 | 0.00 | 1.27 | 0.00 | 88 | 1013.7 |
| 20260507014516 | 6 | 302 | 0.0 | 0.0 | 0.00 | 1.27 | 0.00 | 87 | 1013.4 |
| 20260507013026 | 6 | 301 | 0.0 | 0.0 | 0.00 | 1.27 | 0.00 | 87 | 1013.3 |
| 20260507011521 | 6 | 301 | 0.0 | 0.0 | 0.00 | 1.27 | 0.00 | 87 | 1013.3 |
| 20260507010007 | 6 | 301 | 0.0 | 0.0 | 0.00 | 1.27 | 0.00 | 87 | 1013.5 |
| 20260507004511 | 6 | 295 | 0.0 | 0.0 | 0.00 | 1.27 | 0.00 | 87 | 1013.5 |
| 20260507003012 | 6 | 295 | 0.0 | 0.0 | 0.00 | 1.27 | 0.00 | 87 | 1013.4 |
| 20260507001509 | 6 | 295 | 0.0 | 0.0 | 0.00 | 1.27 | 0.00 | 88 | 1013.5 |
| 20260507000022 | 6 | 295 | 0.0 | 0.0 | 0.00 | 1.27 | 0.00 | 88 | 1013.5 |
| 20260506234513 | 6 | 295 | 0.0 | 0.0 | 0.00 | 1.27 | 0.00 | 88 | 1013.5 |
| 20260506233011 | 6 | 295 | 0.0 | 0.0 | 0.00 | 1.27 | 0.00 | 88 | 1013.4 |
| 20260506231515 | 6 | 296 | 0.0 | 0.0 | 0.00 | 1.27 | 0.00 | 88 | 1013.3 |
| 20260506230018 | 6 | 299 | 0.0 | 0.0 | 0.00 | 1.27 | 0.00 | 88 | 1013.3 |
| 20260506224516 | 6 | 267 | 0.0 | 0.0 | 0.00 | 1.30 | 0.00 | 88 | 1013.2 |
| 20260506223017 | 6 | 278 | 0.0 | 0.0 | 0.00 | 1.30 | 0.00 | 89 | 1013.3 |
| 20260506221511 | 6 | 278 | 0.0 | 0.0 | 0.00 | 1.30 | 0.00 | 88 | 1013.2 |
| 20260506220018 | 7 | 274 | 0.0 | 14.5 | 0.00 | 1.37 | 0.00 | 89 | 1013.2 |
| 20260506214503 | 7 | 277 | 4.8 | 14.5 | 0.00 | 1.40 | 1.37 | 89 | 1013.2 |
| 20260506213030 | 7 | 293 | 0.0 | 0.0 | 0.00 | 1.40 | 1.37 | 89 | 1013.1 |
| 20260506211512 | 7 | 300 | 0.0 | 0.0 | 0.00 | 1.40 | 1.37 | 90 | 1013.2 |
| 20260506210016 | 6 | 262 | 0.0 | 0.0 | 0.00 | 1.40 | 1.37 | 90 | 1013.2 |
| 20260506204505 | 6 | 275 | 0.0 | 16.1 | 0.00 | 1.40 | 1.37 | 89 | 1013.0 |
| 20260506203004 | 6 | 227 | 0.0 | 0.0 | 0.05 | 1.40 | 1.37 | 89 | 1012.8 |
| 20260506201508 | 6 | 261 | 0.0 | 0.0 | 0.05 | 1.40 | 1.37 | 89 | 1012.7 |
| 20260506200014 | 6 | 281 | 0.0 | 0.0 | 0.05 | 1.40 | 1.37 | 88 | 1012.7 |
| 20260506194516 | 7 | 284 | 0.0 | 19.3 | 0.03 | 1.37 | 1.35 | 88 | 1012.7 |
| 20260506193023 | 7 | 286 | 3.2 | 19.3 | 0.00 | 1.32 | 1.30 | 89 | 1012.5 |
| 20260506191505 | 7 | 276 | 0.0 | 0.0 | 0.00 | 1.32 | 1.30 | 89 | 1012.1 |
| 20260506190008 | 7 | 287 | 0.0 | 0.0 | 0.00 | 1.32 | 1.30 | 88 | 1011.9 |
| 20260506184511 | 7 | 287 | 0.0 | 0.0 | 0.00 | 1.32 | 1.30 | 88 | 1011.9 |
| 20260506183017 | 7 | 287 | 0.0 | 0.0 | 0.00 | 1.32 | 1.30 | 87 | 1011.9 |
| 20260506181530 | 8 | 287 | 0.0 | 0.0 | 0.00 | 1.32 | 1.30 | 87 | 1011.8 |
| 20260506180005 | 8 | 287 | 0.0 | 0.0 | 0.00 | 1.37 | 1.30 | 87 | 1011.6 |
| 20260506174507 | 8 | 287 | 0.0 | 0.0 | 0.00 | 1.37 | 1.30 | 87 | 1011.4 |
| 20260506173014 | 8 | 287 | 0.0 | 0.0 | 0.00 | 1.37 | 1.30 | 87 | 1011.2 |
| 20260506171535 | 8 | 284 | 0.0 | 0.0 | 0.00 | 1.37 | 1.30 | 88 | 1011.2 |
| 20260506170023 | 8 | 284 | 0.0 | 0.0 | 0.00 | 1.37 | 1.30 | 88 | 1011.2 |
| 20260506164508 | 8 | 279 | 0.0 | 0.0 | 0.00 | 1.37 | 1.30 | 88 | 1011.2 |
| 20260506163019 | 8 | 279 | 0.0 | 0.0 | 0.00 | 1.37 | 1.30 | 87 | 1011.2 |
| 20260506161520 | 8 | 269 | 0.0 | 0.0 | 0.00 | 1.37 | 1.30 | 87 | 1011.2 |
| 20260506160020 | 8 | 231 | 0.0 | 0.0 | 0.00 | 1.37 | 1.30 | 87 | 1011.2 |
| 20260506154525 | 8 | 281 | 0.0 | 0.0 | 0.00 | 1.37 | 1.30 | 87 | 1011.3 |
| 20260506153010 | 8 | 234 | 0.0 | 0.0 | 0.00 | 1.40 | 1.30 | 87 | 1011.3 |
| 20260506151514 | 8 | 256 | 0.0 | 0.0 | 0.00 | 1.42 | 1.30 | 86 | 1011.4 |
| 20260506150023 | 8 | 285 | 0.0 | 0.0 | 0.00 | 1.42 | 1.30 | 87 | 1011.4 |
| 20260506144526 | 8 | 291 | 0.0 | 0.0 | 0.00 | 1.42 | 1.30 | 88 | 1011.4 |
| 20260506143024 | 8 | 298 | 0.0 | 0.0 | 0.00 | 1.42 | 1.30 | 88 | 1011.5 |
| 20260506141526 | 8 | 285 | 0.0 | 0.0 | 0.00 | 1.42 | 1.30 | 88 | 1011.4 |
| 20260506140019 | 8 | 220 | 0.0 | 0.0 | 0.00 | 1.42 | 1.30 | 88 | 1011.4 |
| 20260506134543 | 8 | 249 | 0.0 | 0.0 | 0.00 | 1.42 | 1.30 | 87 | 1011.5 |
| 20260506133025 | 8 | 307 | 0.0 | 0.0 | 0.00 | 1.42 | 1.30 | 87 | 1011.4 |
| 20260506131527 | 8 | 228 | 0.0 | 0.0 | 0.00 | 1.42 | 1.30 | 87 | 1011.3 |
| 20260506130028 | 7 | 253 | 0.0 | 0.0 | 0.00 | 1.42 | 1.30 | 87 | 1011.3 |
| 20260506124518 | 8 | 292 | 0.0 | 0.0 | 0.00 | 1.42 | 1.30 | 87 | 1011.2 |
| 20260506123004 | 8 | 279 | 0.0 | 0.0 | 0.00 | 1.42 | 1.30 | 88 | 1011.0 |
| 20260506121510 | 8 | 171 | 0.0 | 0.0 | 0.00 | 1.42 | 1.30 | 89 | 1010.8 |
| 20260506120013 | 8 | 187 | 0.0 | 0.0 | 0.00 | 1.45 | 1.30 | 90 | 1010.6 |
| 20260506114522 | 8 | 257 | 0.0 | 1.6 | 0.00 | 1.45 | 1.30 | 90 | 1010.6 |